createdAt,value
2019-06-01T00:00:37.939Z,14.80
2019-06-01T00:03:06.482Z,14.70
2019-06-01T00:05:34.925Z,14.60
2019-06-01T00:08:03.394Z,14.60
2019-06-01T00:10:31.837Z,14.50
2019-06-01T00:13:00.609Z,14.40
2019-06-01T00:15:29.401Z,14.40
2019-06-01T00:17:57.885Z,14.30
2019-06-01T00:20:26.405Z,14.30
2019-06-01T00:22:54.867Z,14.20
2019-06-01T00:25:23.667Z,14.10
2019-06-01T00:27:52.877Z,14.10
2019-06-01T00:30:26.917Z,14.00
2019-06-01T00:32:54.079Z,14.00
2019-06-01T00:35:22.589Z,13.90
2019-06-01T00:37:52.909Z,13.90
2019-06-01T00:40:21.415Z,13.80
2019-06-01T00:42:50.303Z,13.80
2019-06-01T00:45:21.368Z,13.80
2019-06-01T00:47:50.924Z,13.80
2019-06-01T00:50:19.551Z,13.70
2019-06-01T00:52:49.265Z,13.60
2019-06-01T00:55:18.029Z,13.60
2019-06-01T00:57:47.557Z,13.60
2019-06-01T01:00:25.536Z,13.50
2019-06-01T01:02:57.696Z,13.50
2019-06-01T01:05:26.700Z,13.50
2019-06-01T01:07:57.922Z,13.40
2019-06-01T01:10:26.704Z,13.40
2019-06-01T01:13:13.857Z,13.40
2019-06-01T01:15:42.848Z,13.40
2019-06-01T01:18:12.223Z,13.30
2019-06-01T01:20:41.128Z,13.30
2019-06-01T01:23:30.688Z,13.40
2019-06-01T01:25:59.197Z,13.40
2019-06-01T01:28:27.640Z,13.40
2019-06-01T01:31:06.859Z,13.40
2019-06-01T01:33:26.315Z,13.40
2019-06-01T01:35:55.843Z,13.40
2019-06-01T01:38:24.503Z,13.40
2019-06-01T01:40:54.112Z,13.40
2019-06-01T01:43:22.765Z,13.50
2019-06-01T01:45:51.237Z,13.50
2019-06-01T01:48:19.667Z,13.50
2019-06-01T01:50:48.120Z,13.50
2019-06-01T01:53:16.888Z,13.50
2019-06-01T01:55:45.673Z,13.50
2019-06-01T01:58:14.365Z,13.60
2019-06-01T02:00:45.614Z,13.80
2019-06-01T02:03:14.130Z,13.90
2019-06-01T02:05:42.772Z,13.90
2019-06-01T02:08:11.556Z,13.90
2019-06-01T02:10:40.081Z,14.00
2019-06-01T02:13:08.789Z,14.00
2019-06-01T02:15:38.891Z,14.00
2019-06-01T02:18:07.765Z,14.00
2019-06-01T02:20:36.411Z,14.00
2019-06-01T02:23:06.246Z,14.00
2019-06-01T02:25:35.376Z,14.00
2019-06-01T02:28:03.912Z,14.00
2019-06-01T02:30:32.356Z,14.10
2019-06-01T02:33:02.399Z,14.00
2019-06-01T02:35:31.031Z,14.00
2019-06-01T02:38:00.357Z,13.90
2019-06-01T02:40:29.305Z,13.80
2019-06-01T02:42:59.239Z,13.80
2019-06-01T02:45:28.735Z,13.80
2019-06-01T02:47:57.572Z,13.60
2019-06-01T02:50:26.841Z,13.50
2019-06-01T02:52:55.506Z,13.40
2019-06-01T02:55:24.200Z,13.30
2019-06-01T02:57:52.947Z,13.30
2019-06-01T03:00:39.148Z,13.20
2019-06-01T03:03:07.933Z,13.20
2019-06-01T03:05:37.661Z,13.20
2019-06-01T03:08:07.764Z,13.20
2019-06-01T03:10:38.044Z,13.10
2019-06-01T03:13:09.968Z,13.00
2019-06-01T03:15:41.824Z,13.00
2019-06-01T03:18:13.087Z,12.90
2019-06-01T03:20:44.949Z,12.90
2019-06-01T03:23:16.471Z,12.80
2019-06-01T03:25:49.142Z,12.70
2019-06-01T03:28:20.928Z,12.70
2019-06-01T03:30:49.733Z,12.70
2019-06-01T03:33:18.512Z,12.60
2019-06-01T03:35:47.955Z,12.60
2019-06-01T03:38:16.712Z,12.60
2019-06-01T03:40:45.501Z,12.60
2019-06-01T03:43:14.132Z,12.70
2019-06-01T03:45:42.565Z,12.70
2019-06-01T03:48:11.001Z,12.90
2019-06-01T03:50:45.684Z,12.90
2019-06-01T03:53:14.132Z,12.90
2019-06-01T03:55:42.866Z,13.00
2019-06-01T03:58:11.317Z,13.00
2019-06-01T04:00:40.138Z,13.00
2019-06-01T04:03:09.199Z,13.10
2019-06-01T04:05:38.132Z,13.20
2019-06-01T04:08:07.505Z,13.30
2019-06-01T04:10:36.538Z,13.40
2019-06-01T04:13:05.648Z,13.50
2019-06-01T04:15:34.392Z,13.60
2019-06-01T04:18:03.914Z,13.90
2019-06-01T04:20:32.456Z,14.10
2019-06-01T04:23:01.971Z,14.20
2019-06-01T04:25:32.576Z,14.40
2019-06-01T04:28:02.122Z,14.50
2019-06-01T04:30:31.484Z,14.60
2019-06-01T04:33:00.005Z,14.70
2019-06-01T04:35:28.770Z,14.80
2019-06-01T04:37:57.560Z,14.90
2019-06-01T04:40:26.003Z,14.90
2019-06-01T04:42:54.440Z,15.10
2019-06-01T04:45:23.209Z,15.30
2019-06-01T04:47:51.896Z,15.40
2019-06-01T04:50:20.368Z,15.60
2019-06-01T04:52:48.882Z,15.80
2019-06-01T04:55:17.663Z,16.00
2019-06-01T04:57:46.359Z,16.00
2019-06-01T05:00:27.112Z,16.00
2019-06-01T05:02:45.634Z,16.10
2019-06-01T05:05:15.468Z,16.20
2019-06-01T05:07:44.167Z,16.50
2019-06-01T05:10:14.265Z,16.70
2019-06-01T05:12:44.124Z,17.00
2019-06-01T05:15:15.955Z,17.20
2019-06-01T05:17:44.732Z,17.50
2019-06-01T05:20:14.709Z,18.00
2019-06-01T05:22:43.696Z,18.30
2019-06-01T05:25:15.303Z,18.60
2019-06-01T05:27:44.144Z,18.80
2019-06-01T05:30:13.694Z,18.90
2019-06-01T05:32:42.545Z,19.40
2019-06-01T05:35:11.840Z,20.30
2019-06-01T05:37:40.370Z,21.40
2019-06-01T05:40:10.589Z,21.70
2019-06-01T05:42:39.077Z,21.80
2019-06-01T05:45:09.269Z,21.60
2019-06-01T05:47:38.167Z,20.70
2019-06-01T05:50:07.469Z,20.80
2019-06-01T05:52:36.279Z,20.80
2019-06-01T05:55:06.516Z,20.80
2019-06-01T05:57:34.961Z,21.30
2019-06-01T06:00:05.718Z,22.00
2019-06-01T06:02:34.507Z,22.00
2019-06-01T06:05:03.136Z,22.10
2019-06-01T06:07:31.608Z,21.60
2019-06-01T06:10:00.060Z,21.50
2019-06-01T06:12:28.856Z,21.50
2019-06-01T06:14:57.650Z,22.00
2019-06-01T06:17:26.083Z,22.40
2019-06-01T06:19:54.780Z,22.50
2019-06-01T06:22:23.227Z,22.60
2019-06-01T06:24:52.100Z,22.40
2019-06-01T06:27:20.731Z,22.50
2019-06-01T06:29:49.265Z,22.80
2019-06-01T06:32:17.732Z,23.40
2019-06-01T06:34:46.448Z,23.50
2019-06-01T06:37:15.629Z,23.70
2019-06-01T06:39:44.173Z,24.00
2019-06-01T06:42:12.626Z,23.80
2019-06-01T06:44:41.422Z,23.50
2019-06-01T06:47:10.384Z,23.90
2019-06-01T06:49:38.831Z,24.20
2019-06-01T06:52:07.292Z,23.90
2019-06-01T06:54:36.080Z,23.50
2019-06-01T06:57:04.554Z,23.30
2019-06-01T06:59:32.977Z,23.10
2019-06-01T07:02:01.835Z,23.40
2019-06-01T07:04:30.625Z,23.50
2019-06-01T07:06:59.448Z,23.90
2019-06-01T07:09:28.315Z,24.20
2019-06-01T07:11:56.995Z,24.10
2019-06-01T07:14:25.556Z,24.30
2019-06-01T07:16:54.160Z,24.50
2019-06-01T07:19:23.759Z,25.00
2019-06-01T07:21:52.707Z,24.90
2019-06-01T07:24:21.744Z,26.00
2019-06-01T07:26:50.580Z,25.80
2019-06-01T07:29:19.983Z,25.70
2019-06-01T07:31:48.670Z,25.50
2019-06-01T07:34:30.779Z,25.90
2019-06-01T07:36:47.627Z,25.30
2019-06-01T07:39:16.126Z,25.80
2019-06-01T07:41:46.647Z,25.50
2019-06-01T07:44:14.829Z,25.60
2019-06-01T07:46:43.268Z,25.30
2019-06-01T07:49:11.726Z,25.40
2019-06-01T07:51:40.230Z,25.40
2019-06-01T07:54:08.673Z,25.50
2019-06-01T07:56:37.117Z,25.20
2019-06-01T07:59:05.558Z,25.00
2019-06-01T08:01:34.075Z,25.30
2019-06-01T08:04:02.961Z,25.70
2019-06-01T08:06:32.706Z,25.60
2019-06-01T08:09:01.420Z,25.00
2019-06-01T08:11:32.829Z,25.10
2019-06-01T08:14:00.220Z,25.50
2019-06-01T08:16:29.907Z,25.30
2019-06-01T08:18:58.822Z,25.20
2019-06-01T08:21:28.110Z,25.00
2019-06-01T08:23:56.996Z,24.70
2019-06-01T08:26:26.482Z,24.70
2019-06-01T08:28:55.015Z,25.20
2019-06-01T08:31:24.528Z,25.50
2019-06-01T08:33:53.077Z,25.90
2019-06-01T08:36:23.096Z,26.00
2019-06-01T08:38:51.735Z,26.10
2019-06-01T08:41:20.235Z,25.80
2019-06-01T08:43:48.667Z,25.00
2019-06-01T08:46:18.030Z,25.00
2019-06-01T08:48:46.514Z,25.10
2019-06-01T08:51:15.020Z,25.30
2019-06-01T08:53:43.448Z,25.50
2019-06-01T08:56:11.918Z,25.70
2019-06-01T08:58:41.533Z,25.70
2019-06-01T09:01:10.321Z,25.60
2019-06-01T09:03:45.582Z,25.70
2019-06-01T09:06:09.259Z,25.80
2019-06-01T09:08:37.705Z,26.00
2019-06-01T09:11:06.155Z,25.80
2019-06-01T09:13:35.477Z,25.80
2019-06-01T09:16:04.274Z,26.20
2019-06-01T09:18:33.691Z,26.00
2019-06-01T09:21:02.645Z,25.80
2019-06-01T09:23:50.863Z,26.00
2019-06-01T09:26:19.642Z,26.30
2019-06-01T09:28:48.088Z,25.90
2019-06-01T09:31:16.630Z,25.40
2019-06-01T09:33:45.125Z,25.50
2019-06-01T09:36:13.554Z,25.40
2019-06-01T09:38:42.265Z,25.80
2019-06-01T09:41:10.735Z,26.40
2019-06-01T09:43:39.949Z,26.20
2019-06-01T09:46:08.489Z,26.00
2019-06-01T09:48:37.847Z,25.70
2019-06-01T09:51:06.850Z,25.90
2019-06-01T09:53:36.169Z,25.80
2019-06-01T09:56:05.563Z,26.00
2019-06-01T09:58:34.639Z,26.50
2019-06-01T10:01:03.457Z,26.20
2019-06-01T10:03:32.496Z,25.90
2019-06-01T10:06:02.481Z,25.90
2019-06-01T10:08:32.561Z,25.70
2019-06-01T10:11:02.700Z,26.10
2019-06-01T10:13:32.926Z,26.40
2019-06-01T10:16:01.368Z,26.30
2019-06-01T10:18:30.862Z,26.40
2019-06-01T10:20:59.461Z,26.00
2019-06-01T10:23:28.301Z,25.90
2019-06-01T10:25:56.732Z,25.90
2019-06-01T10:28:25.701Z,25.90
2019-06-01T10:30:54.125Z,25.90
2019-06-01T10:33:22.970Z,26.00
2019-06-01T10:35:51.724Z,26.00
2019-06-01T10:38:20.441Z,26.00
2019-06-01T10:40:49.335Z,26.20
2019-06-01T10:43:18.720Z,25.90
2019-06-01T10:45:47.171Z,25.50
2019-06-01T10:48:20.035Z,25.50
2019-06-01T10:50:48.818Z,25.70
2019-06-01T10:53:17.269Z,25.90
2019-06-01T10:55:46.442Z,26.40
2019-06-01T10:58:14.875Z,26.50
2019-06-01T11:00:50.508Z,26.80
2019-06-01T11:03:15.755Z,26.80
2019-06-01T11:05:44.756Z,26.20
2019-06-01T11:08:13.180Z,26.10
2019-06-01T11:10:41.650Z,25.80
2019-06-01T11:13:10.396Z,26.20
2019-06-01T11:15:39.353Z,26.40
2019-06-01T11:18:08.240Z,26.20
2019-06-01T11:20:37.268Z,25.90
2019-06-01T11:23:06.418Z,26.00
2019-06-01T11:25:35.592Z,26.10
2019-06-01T11:28:04.407Z,25.90
2019-06-01T11:30:33.563Z,25.90
2019-06-01T11:33:02.133Z,26.20
2019-06-01T11:35:31.026Z,25.90
2019-06-01T11:37:59.480Z,26.00
2019-06-01T11:40:27.927Z,26.40
2019-06-01T11:42:56.646Z,26.60
2019-06-01T11:45:25.578Z,27.10
2019-06-01T11:47:54.326Z,26.90
2019-06-01T11:50:24.035Z,26.70
2019-06-01T11:52:53.513Z,26.60
2019-06-01T11:55:21.999Z,26.60
2019-06-01T11:57:50.441Z,27.10
2019-06-01T12:00:19.444Z,27.10
2019-06-01T12:02:48.192Z,27.00
2019-06-01T12:05:17.303Z,27.20
2019-06-01T12:07:46.068Z,27.10
2019-06-01T12:10:16.808Z,27.40
2019-06-01T12:12:46.476Z,27.70
2019-06-01T12:15:15.359Z,28.00
2019-06-01T12:17:44.818Z,28.10
2019-06-01T12:20:14.249Z,28.00
2019-06-01T12:22:42.993Z,28.40
2019-06-01T12:25:12.234Z,28.40
2019-06-01T12:27:41.580Z,28.80
2019-06-01T12:30:10.911Z,28.50
2019-06-01T12:32:39.869Z,28.40
2019-06-01T12:35:08.710Z,28.40
2019-06-01T12:38:22.264Z,28.40
2019-06-01T12:40:09.169Z,28.60
2019-06-01T12:42:37.953Z,29.40
2019-06-01T12:45:07.428Z,29.00
2019-06-01T12:47:35.895Z,28.80
2019-06-01T12:50:07.078Z,29.20
2019-06-01T12:52:35.592Z,29.40
2019-06-01T12:55:05.723Z,29.60
2019-06-01T12:57:34.532Z,29.50
2019-06-01T13:00:03.054Z,29.60
2019-06-01T13:02:31.486Z,30.00
2019-06-01T13:05:00.282Z,29.90
2019-06-01T13:07:29.072Z,29.30
2019-06-01T13:09:57.762Z,29.20
2019-06-01T13:12:26.212Z,29.20
2019-06-01T13:14:54.940Z,29.20
2019-06-01T13:17:23.393Z,29.20
2019-06-01T13:19:51.841Z,29.40
2019-06-01T13:22:20.348Z,29.70
2019-06-01T13:24:49.859Z,29.50
2019-06-01T13:27:40.810Z,30.10
2019-06-01T13:30:08.824Z,30.20
2019-06-01T13:32:37.275Z,30.10
2019-06-01T13:35:08.213Z,30.00
2019-06-01T13:37:36.653Z,30.00
2019-06-01T13:40:06.492Z,30.40
2019-06-01T13:42:34.930Z,30.60
2019-06-01T13:45:05.430Z,30.20
2019-06-01T13:47:34.212Z,29.50
2019-06-01T13:50:06.490Z,29.40
2019-06-01T13:52:33.397Z,29.60
2019-06-01T13:55:01.882Z,29.70
2019-06-01T13:57:30.705Z,29.60
2019-06-01T13:59:59.148Z,30.20
2019-06-01T14:02:27.876Z,30.60
2019-06-01T14:04:56.317Z,30.60
2019-06-01T14:07:24.736Z,30.70
2019-06-01T14:09:53.762Z,30.60
2019-06-01T14:12:22.312Z,30.90
2019-06-01T14:14:51.530Z,30.80
2019-06-01T14:17:39.500Z,30.10
2019-06-01T14:20:08.523Z,29.70
2019-06-01T14:22:37.129Z,29.90
2019-06-01T14:25:14.211Z,29.80
2019-06-01T14:27:38.385Z,29.90
2019-06-01T14:30:08.127Z,29.50
2019-06-01T14:32:36.926Z,29.80
2019-06-01T14:35:08.622Z,30.10
2019-06-01T14:37:37.050Z,30.40
2019-06-01T14:40:07.189Z,30.30
2019-06-01T14:42:35.685Z,30.50
2019-06-01T14:45:08.883Z,30.80
2019-06-01T14:47:37.310Z,31.00
2019-06-01T14:50:08.205Z,30.50
2019-06-01T14:52:36.722Z,29.80
2019-06-01T14:55:07.080Z,29.70
2019-06-01T14:57:35.573Z,29.70
2019-06-01T15:00:09.814Z,29.50
2019-06-01T15:02:38.601Z,29.30
2019-06-01T15:05:08.189Z,29.30
2019-06-01T15:07:36.791Z,29.20
2019-06-01T15:10:07.771Z,29.20
2019-06-01T15:12:36.587Z,29.10
2019-06-01T15:15:08.340Z,28.90
2019-06-01T15:17:37.096Z,29.00
2019-06-01T15:20:10.318Z,28.90
2019-06-01T15:22:38.772Z,28.90
2019-06-01T15:25:08.568Z,29.00
2019-06-01T15:27:37.054Z,28.90
2019-06-01T15:30:07.713Z,28.90
2019-06-01T15:32:36.502Z,28.80
2019-06-01T15:35:07.750Z,28.80
2019-06-01T15:37:36.247Z,29.10
2019-06-01T15:40:12.083Z,28.90
2019-06-01T15:42:40.533Z,29.00
2019-06-01T15:45:09.976Z,28.70
2019-06-01T15:47:38.500Z,28.30
2019-06-01T15:50:08.996Z,28.20
2019-06-01T15:52:37.436Z,28.20
2019-06-01T15:55:07.616Z,28.00
2019-06-01T15:57:36.415Z,27.90
2019-06-01T16:00:09.325Z,27.80
2019-06-01T16:02:38.087Z,27.90
2019-06-01T16:05:07.364Z,28.00
2019-06-01T16:07:35.855Z,28.00
2019-06-01T16:10:08.345Z,27.90
2019-06-01T16:12:37.548Z,27.60
2019-06-01T16:15:10.125Z,27.60
2019-06-01T16:17:38.568Z,27.60
2019-06-01T16:20:08.240Z,27.40
2019-06-01T16:22:36.684Z,27.20
2019-06-01T16:25:07.030Z,27.20
2019-06-01T16:27:36.373Z,27.20
2019-06-01T16:30:08.588Z,27.40
2019-06-01T16:32:39.646Z,27.40
2019-06-01T16:35:07.941Z,27.30
2019-06-01T16:37:36.417Z,27.20
2019-06-01T16:40:09.907Z,27.20
2019-06-01T16:42:37.068Z,27.30
2019-06-01T16:45:07.748Z,27.10
2019-06-01T16:47:36.505Z,27.20
2019-06-01T16:50:09.255Z,27.10
2019-06-01T16:52:57.895Z,27.00
2019-06-01T16:55:26.568Z,26.80
2019-06-01T16:57:55.013Z,26.80
2019-06-01T17:00:23.792Z,26.90
2019-06-01T17:02:52.226Z,26.70
2019-06-01T17:05:20.852Z,26.60
2019-06-01T17:07:49.278Z,26.60
2019-06-01T17:10:26.181Z,26.50
2019-06-01T17:12:49.597Z,26.30
2019-06-01T17:15:18.111Z,26.30
2019-06-01T17:17:46.911Z,26.10
2019-06-01T17:20:47.183Z,26.10
2019-06-01T17:23:33.150Z,26.20
2019-06-01T17:25:46.061Z,26.10
2019-06-01T17:28:15.017Z,26.10
2019-06-01T17:30:43.536Z,26.10
2019-06-01T17:33:12.084Z,26.10
2019-06-01T17:35:40.531Z,26.00
2019-06-01T17:38:09.328Z,25.90
2019-06-01T17:40:42.560Z,25.90
2019-06-01T17:43:08.901Z,25.80
2019-06-01T17:45:37.865Z,25.70
2019-06-01T17:48:24.718Z,25.70
2019-06-01T17:50:39.436Z,25.50
2019-06-01T17:53:08.839Z,25.50
2019-06-01T17:55:39.216Z,25.30
2019-06-01T17:58:09.790Z,25.20
2019-06-01T18:00:39.113Z,25.10
2019-06-01T18:03:08.085Z,25.00
2019-06-01T18:05:39.862Z,25.00
2019-06-01T18:08:08.312Z,25.00
2019-06-01T18:10:52.378Z,24.90
2019-06-01T18:13:08.704Z,24.80
2019-06-01T18:15:37.692Z,24.80
2019-06-01T18:18:08.533Z,24.70
2019-06-01T18:20:37.686Z,24.70
2019-06-01T18:23:10.976Z,24.60
2019-06-01T18:25:39.304Z,24.50
2019-06-01T18:28:14.717Z,24.50
2019-06-01T18:30:38.019Z,24.40
2019-06-01T18:33:07.184Z,24.30
2019-06-01T18:35:35.765Z,24.30
2019-06-01T18:38:05.578Z,24.20
2019-06-01T18:40:34.850Z,24.10
2019-06-01T18:43:10.073Z,24.00
2019-06-01T18:45:39.848Z,24.00
2019-06-01T18:48:10.035Z,23.90
2019-06-01T18:50:38.601Z,23.90
2019-06-01T18:53:07.974Z,23.80
2019-06-01T18:55:36.676Z,23.70
2019-06-01T18:58:06.335Z,23.70
2019-06-01T19:00:39.330Z,23.60
2019-06-01T19:03:07.126Z,23.50
2019-06-01T19:05:36.188Z,23.50
2019-06-01T19:08:05.137Z,23.30
2019-06-01T19:10:34.249Z,23.20
2019-06-01T19:13:03.111Z,23.10
2019-06-01T19:15:31.577Z,23.00
2019-06-01T19:18:00.337Z,22.90
2019-06-01T19:20:28.780Z,22.80
2019-06-01T19:22:57.277Z,22.70
2019-06-01T19:25:25.932Z,22.60
2019-06-01T19:27:54.359Z,22.40
2019-06-01T19:30:37.629Z,22.30
2019-06-01T19:33:07.191Z,22.20
2019-06-01T19:35:38.170Z,22.00
2019-06-01T19:38:07.123Z,21.90
2019-06-01T19:40:37.868Z,21.80
2019-06-01T19:43:09.445Z,21.70
2019-06-01T19:45:38.423Z,21.50
2019-06-01T19:48:08.264Z,21.40
2019-06-01T19:50:36.976Z,21.20
2019-06-01T19:53:05.584Z,21.10
2019-06-01T19:55:34.204Z,21.00
2019-06-01T19:58:02.668Z,20.90
2019-06-01T20:00:31.421Z,20.80
2019-06-01T20:02:59.836Z,20.70
2019-06-01T20:05:28.298Z,20.60
2019-06-01T20:07:57.053Z,20.40
2019-06-01T20:10:26.407Z,20.30
2019-06-01T20:12:55.149Z,20.30
2019-06-01T20:15:24.760Z,20.10
2019-06-01T20:17:53.180Z,20.00
2019-06-01T20:20:23.059Z,19.90
2019-06-01T20:22:52.060Z,19.80
2019-06-01T20:25:21.783Z,19.80
2019-06-01T20:27:50.352Z,19.60
2019-06-01T20:30:22.063Z,19.60
2019-06-01T20:32:59.985Z,19.50
2019-06-01T20:35:30.598Z,19.40
2019-06-01T20:38:00.792Z,19.30
2019-06-01T20:40:31.436Z,19.20
2019-06-01T20:43:24.273Z,19.10
2019-06-01T20:45:56.667Z,19.00
2019-06-01T20:48:24.418Z,19.00
2019-06-01T20:50:53.755Z,18.90
2019-06-01T20:53:26.156Z,18.90
2019-06-01T20:55:55.308Z,18.80
2019-06-01T20:58:24.878Z,18.70
2019-06-01T21:00:53.793Z,18.70
2019-06-01T21:03:22.310Z,18.70
2019-06-01T21:05:51.828Z,18.60
2019-06-01T21:08:22.031Z,18.60
2019-06-01T21:10:52.079Z,18.50
2019-06-01T21:13:22.175Z,18.50
2019-06-01T21:15:51.926Z,18.40
2019-06-01T21:18:22.551Z,18.30
2019-06-01T21:20:56.867Z,18.20
2019-06-01T21:23:25.507Z,18.30
2019-06-01T21:25:54.026Z,18.30
2019-06-01T21:28:23.701Z,18.40
2019-06-01T21:30:52.667Z,18.40
2019-06-01T21:33:21.399Z,18.40
2019-06-01T21:35:51.347Z,18.40
2019-06-01T21:38:21.367Z,18.40
2019-06-01T21:40:49.996Z,18.40
2019-06-01T21:43:29.542Z,18.40
2019-06-01T21:45:51.193Z,18.40
2019-06-01T21:48:19.837Z,18.30
2019-06-01T21:50:48.451Z,18.30
2019-06-01T21:53:18.043Z,18.30
2019-06-01T21:55:46.647Z,18.30
2019-06-01T21:58:16.352Z,18.30
2019-06-01T22:00:46.714Z,18.20
2019-06-01T22:03:16.712Z,18.20
2019-06-01T22:05:45.351Z,18.10
2019-06-01T22:08:14.760Z,18.10
2019-06-01T22:10:43.870Z,18.10
2019-06-01T22:13:18.691Z,18.10
2019-06-01T22:15:42.779Z,18.10
2019-06-01T22:18:11.221Z,18.10
2019-06-01T22:20:39.879Z,18.20
2019-06-01T22:23:11.626Z,18.20
2019-06-01T22:25:38.810Z,18.20
2019-06-01T22:28:07.522Z,18.20
2019-06-01T22:30:37.233Z,18.20
2019-06-01T22:33:05.665Z,18.20
2019-06-01T22:35:34.448Z,18.20
2019-06-01T22:38:02.884Z,18.20
2019-06-01T22:40:31.505Z,18.10
2019-06-01T22:43:01.197Z,18.00
2019-06-01T22:45:30.003Z,18.00
2019-06-01T22:47:58.434Z,17.90
2019-06-01T22:50:27.071Z,17.90
2019-06-01T22:52:55.700Z,17.90
2019-06-01T22:55:24.401Z,17.80
2019-06-01T22:57:53.242Z,17.70
2019-06-01T23:00:23.636Z,17.70
2019-06-01T23:02:52.288Z,17.70
2019-06-01T23:05:20.939Z,17.60
2019-06-01T23:07:49.494Z,17.50
2019-06-01T23:10:17.936Z,17.50
2019-06-01T23:12:46.399Z,17.40
2019-06-01T23:15:15.758Z,17.40
2019-06-01T23:21:17.892Z,17.30
2019-06-01T23:23:52.352Z,17.20
2019-06-01T23:26:22.004Z,17.10
2019-06-01T23:29:09.961Z,17.10
2019-06-01T23:31:38.756Z,17.10
2019-06-01T23:34:17.197Z,17.00
2019-06-01T23:36:45.712Z,17.00
2019-06-01T23:39:14.531Z,16.90
2019-06-01T23:41:42.980Z,16.80
2019-06-01T23:44:12.607Z,16.80
2019-06-01T23:46:42.281Z,16.70
2019-06-01T23:49:10.712Z,16.70
2019-06-01T23:51:41.202Z,16.60
2019-06-01T23:54:17.671Z,16.60
2019-06-01T23:56:46.110Z,16.50
2019-06-01T23:59:34.342Z,16.50
